sensor_id;sensor_type;location;lat;lon;timestamp;P1;durP1;ratioP1;P2;durP2;ratioP2
11614;SDS011;5863;52.832;4.758;2022-08-02T00:02:04;5.68;;;2.20;;
11614;SDS011;5863;52.832;4.758;2022-08-02T00:04:32;2.45;;;1.85;;
11614;SDS011;5863;52.832;4.758;2022-08-02T00:06:58;6.07;;;2.30;;
11614;SDS011;5863;52.832;4.758;2022-08-02T00:09:25;3.17;;;2.00;;
11614;SDS011;5863;52.832;4.758;2022-08-02T00:11:58;5.03;;;1.85;;
11614;SDS011;5863;52.832;4.758;2022-08-02T00:14:25;3.72;;;2.00;;
11614;SDS011;5863;52.832;4.758;2022-08-02T00:16:52;3.05;;;1.35;;
11614;SDS011;5863;52.832;4.758;2022-08-02T00:19:18;4.85;;;2.00;;
11614;SDS011;5863;52.832;4.758;2022-08-02T00:21:47;3.03;;;2.05;;
11614;SDS011;5863;52.832;4.758;2022-08-02T00:24:13;5.40;;;1.90;;
11614;SDS011;5863;52.832;4.758;2022-08-02T00:26:40;6.32;;;2.10;;
11614;SDS011;5863;52.832;4.758;2022-08-02T00:29:07;5.03;;;2.30;;
11614;SDS011;5863;52.832;4.758;2022-08-02T00:31:33;3.65;;;2.00;;
11614;SDS011;5863;52.832;4.758;2022-08-02T00:34:00;6.18;;;2.30;;
11614;SDS011;5863;52.832;4.758;2022-08-02T00:36:27;6.95;;;2.50;;
11614;SDS011;5863;52.832;4.758;2022-08-02T00:38:55;4.88;;;2.53;;
11614;SDS011;5863;52.832;4.758;2022-08-02T00:41:22;9.23;;;2.58;;
11614;SDS011;5863;52.832;4.758;2022-08-02T00:43:50;6.30;;;2.80;;
11614;SDS011;5863;52.832;4.758;2022-08-02T00:46:18;7.60;;;2.35;;
11614;SDS011;5863;52.832;4.758;2022-08-02T00:48:45;4.47;;;2.30;;
11614;SDS011;5863;52.832;4.758;2022-08-02T00:51:13;5.75;;;2.30;;
11614;SDS011;5863;52.832;4.758;2022-08-02T00:53:41;4.45;;;2.25;;
11614;SDS011;5863;52.832;4.758;2022-08-02T00:56:09;6.32;;;2.58;;
11614;SDS011;5863;52.832;4.758;2022-08-02T00:58:36;9.15;;;2.55;;
11614;SDS011;5863;52.832;4.758;2022-08-02T01:01:03;4.70;;;2.40;;
11614;SDS011;5863;52.832;4.758;2022-08-02T01:03:29;4.22;;;2.17;;
11614;SDS011;5863;52.832;4.758;2022-08-02T01:05:56;8.00;;;2.53;;
11614;SDS011;5863;52.832;4.758;2022-08-02T01:08:23;5.15;;;2.45;;
11614;SDS011;5863;52.832;4.758;2022-08-02T01:10:50;4.75;;;2.22;;
11614;SDS011;5863;52.832;4.758;2022-08-02T01:13:18;3.85;;;2.17;;
11614;SDS011;5863;52.832;4.758;2022-08-02T01:15:46;4.78;;;2.40;;
11614;SDS011;5863;52.832;4.758;2022-08-02T01:18:22;5.97;;;2.50;;
11614;SDS011;5863;52.832;4.758;2022-08-02T01:24:00;5.63;;;2.17;;
11614;SDS011;5863;52.832;4.758;2022-08-02T01:26:39;4.15;;;1.95;;
11614;SDS011;5863;52.832;4.758;2022-08-02T01:29:14;4.43;;;2.40;;
11614;SDS011;5863;52.832;4.758;2022-08-02T01:31:46;4.28;;;2.50;;
11614;SDS011;5863;52.832;4.758;2022-08-02T01:34:23;4.30;;;2.25;;
11614;SDS011;5863;52.832;4.758;2022-08-02T01:37:01;3.92;;;1.90;;
11614;SDS011;5863;52.832;4.758;2022-08-02T01:39:33;4.68;;;1.90;;
11614;SDS011;5863;52.832;4.758;2022-08-02T01:42:01;4.75;;;2.38;;
11614;SDS011;5863;52.832;4.758;2022-08-02T01:44:32;4.82;;;2.35;;
11614;SDS011;5863;52.832;4.758;2022-08-02T01:47:02;4.88;;;2.40;;
11614;SDS011;5863;52.832;4.758;2022-08-02T01:49:32;4.93;;;2.17;;
11614;SDS011;5863;52.832;4.758;2022-08-02T01:52:00;9.88;;;2.53;;
11614;SDS011;5863;52.832;4.758;2022-08-02T01:54:47;5.53;;;2.15;;
11614;SDS011;5863;52.832;4.758;2022-08-02T01:57:15;8.00;;;2.58;;
11614;SDS011;5863;52.832;4.758;2022-08-02T01:59:45;5.28;;;2.15;;
11614;SDS011;5863;52.832;4.758;2022-08-02T02:02:15;6.72;;;2.28;;
11614;SDS011;5863;52.832;4.758;2022-08-02T02:04:44;5.60;;;2.03;;
11614;SDS011;5863;52.832;4.758;2022-08-02T02:07:11;6.65;;;2.03;;
11614;SDS011;5863;52.832;4.758;2022-08-02T02:09:40;6.18;;;2.22;;
11614;SDS011;5863;52.832;4.758;2022-08-02T02:12:07;5.47;;;2.35;;
11614;SDS011;5863;52.832;4.758;2022-08-02T02:14:37;4.93;;;2.15;;
11614;SDS011;5863;52.832;4.758;2022-08-02T02:17:07;7.00;;;2.03;;
11614;SDS011;5863;52.832;4.758;2022-08-02T02:19:35;3.40;;;2.08;;
11614;SDS011;5863;52.832;4.758;2022-08-02T02:22:03;5.60;;;2.00;;
11614;SDS011;5863;52.832;4.758;2022-08-02T02:24:30;5.20;;;2.05;;
11614;SDS011;5863;52.832;4.758;2022-08-02T02:26:58;6.97;;;1.90;;
11614;SDS011;5863;52.832;4.758;2022-08-02T02:29:27;8.48;;;2.17;;
11614;SDS011;5863;52.832;4.758;2022-08-02T02:31:56;4.93;;;2.03;;
11614;SDS011;5863;52.832;4.758;2022-08-02T02:34:26;4.32;;;1.95;;
11614;SDS011;5863;52.832;4.758;2022-08-02T02:36:55;4.88;;;2.08;;
11614;SDS011;5863;52.832;4.758;2022-08-02T02:39:24;4.25;;;1.95;;
11614;SDS011;5863;52.832;4.758;2022-08-02T02:41:54;4.00;;;2.03;;
11614;SDS011;5863;52.832;4.758;2022-08-02T02:44:25;5.00;;;2.33;;
11614;SDS011;5863;52.832;4.758;2022-08-02T02:46:53;2.38;;;1.80;;
11614;SDS011;5863;52.832;4.758;2022-08-02T02:49:20;4.70;;;2.00;;
11614;SDS011;5863;52.832;4.758;2022-08-02T02:51:50;5.38;;;2.22;;
11614;SDS011;5863;52.832;4.758;2022-08-02T02:54:18;5.00;;;2.20;;
11614;SDS011;5863;52.832;4.758;2022-08-02T02:56:46;5.47;;;1.98;;
11614;SDS011;5863;52.832;4.758;2022-08-02T02:59:14;6.63;;;2.00;;
11614;SDS011;5863;52.832;4.758;2022-08-02T03:01:42;6.70;;;2.25;;
11614;SDS011;5863;52.832;4.758;2022-08-02T03:04:10;5.85;;;2.10;;
11614;SDS011;5863;52.832;4.758;2022-08-02T03:06:37;7.28;;;2.30;;
11614;SDS011;5863;52.832;4.758;2022-08-02T03:09:06;4.47;;;1.80;;
11614;SDS011;5863;52.832;4.758;2022-08-02T03:11:34;5.78;;;2.03;;
11614;SDS011;5863;52.832;4.758;2022-08-02T03:14:02;4.03;;;1.98;;
11614;SDS011;5863;52.832;4.758;2022-08-02T03:16:30;5.90;;;2.10;;
11614;SDS011;5863;52.832;4.758;2022-08-02T03:18:57;3.10;;;1.92;;
11614;SDS011;5863;52.832;4.758;2022-08-02T03:21:28;4.65;;;1.83;;
11614;SDS011;5863;52.832;4.758;2022-08-02T03:23:54;3.63;;;1.88;;
11614;SDS011;5863;52.832;4.758;2022-08-02T03:26:22;5.38;;;2.28;;
11614;SDS011;5863;52.832;4.758;2022-08-02T03:28:49;6.55;;;2.22;;
11614;SDS011;5863;52.832;4.758;2022-08-02T03:31:16;5.35;;;2.17;;
11614;SDS011;5863;52.832;4.758;2022-08-02T03:33:42;8.80;;;2.13;;
11614;SDS011;5863;52.832;4.758;2022-08-02T03:36:10;6.65;;;2.10;;
11614;SDS011;5863;52.832;4.758;2022-08-02T03:38:38;5.47;;;1.92;;
11614;SDS011;5863;52.832;4.758;2022-08-02T03:41:06;6.50;;;1.70;;
11614;SDS011;5863;52.832;4.758;2022-08-02T03:43:36;4.03;;;2.17;;
11614;SDS011;5863;52.832;4.758;2022-08-02T03:46:04;4.80;;;2.03;;
11614;SDS011;5863;52.832;4.758;2022-08-02T03:48:34;5.53;;;1.80;;
11614;SDS011;5863;52.832;4.758;2022-08-02T03:51:03;5.93;;;1.90;;
11614;SDS011;5863;52.832;4.758;2022-08-02T03:53:31;3.80;;;1.70;;
11614;SDS011;5863;52.832;4.758;2022-08-02T03:55:58;5.53;;;1.85;;
11614;SDS011;5863;52.832;4.758;2022-08-02T03:58:26;6.03;;;1.90;;
11614;SDS011;5863;52.832;4.758;2022-08-02T04:00:55;6.80;;;2.10;;
11614;SDS011;5863;52.832;4.758;2022-08-02T04:03:24;4.28;;;1.60;;
11614;SDS011;5863;52.832;4.758;2022-08-02T04:05:52;5.00;;;1.80;;
11614;SDS011;5863;52.832;4.758;2022-08-02T04:08:18;5.18;;;1.80;;
11614;SDS011;5863;52.832;4.758;2022-08-02T04:10:45;3.85;;;1.80;;
11614;SDS011;5863;52.832;4.758;2022-08-02T04:13:31;4.38;;;1.90;;
11614;SDS011;5863;52.832;4.758;2022-08-02T04:16:02;6.32;;;1.95;;
11614;SDS011;5863;52.832;4.758;2022-08-02T04:18:33;4.43;;;2.00;;
11614;SDS011;5863;52.832;4.758;2022-08-02T04:21:05;3.97;;;1.73;;
11614;SDS011;5863;52.832;4.758;2022-08-02T04:23:34;4.70;;;2.20;;
11614;SDS011;5863;52.832;4.758;2022-08-02T04:26:03;5.63;;;2.20;;
11614;SDS011;5863;52.832;4.758;2022-08-02T04:28:30;4.10;;;1.80;;
11614;SDS011;5863;52.832;4.758;2022-08-02T04:30:58;2.53;;;2.00;;
11614;SDS011;5863;52.832;4.758;2022-08-02T04:33:27;5.60;;;1.83;;
11614;SDS011;5863;52.832;4.758;2022-08-02T04:35:54;4.78;;;2.15;;
11614;SDS011;5863;52.832;4.758;2022-08-02T04:38:22;6.50;;;2.00;;
11614;SDS011;5863;52.832;4.758;2022-08-02T04:40:49;3.95;;;1.75;;
11614;SDS011;5863;52.832;4.758;2022-08-02T04:43:17;4.28;;;1.80;;
11614;SDS011;5863;52.832;4.758;2022-08-02T04:45:43;3.22;;;1.73;;
11614;SDS011;5863;52.832;4.758;2022-08-02T04:48:14;4.95;;;1.80;;
11614;SDS011;5863;52.832;4.758;2022-08-02T04:50:41;4.57;;;1.65;;
11614;SDS011;5863;52.832;4.758;2022-08-02T04:53:08;5.15;;;1.70;;
11614;SDS011;5863;52.832;4.758;2022-08-02T04:55:35;3.53;;;1.90;;
11614;SDS011;5863;52.832;4.758;2022-08-02T04:58:01;3.80;;;1.73;;
11614;SDS011;5863;52.832;4.758;2022-08-02T05:00:28;3.90;;;1.92;;
11614;SDS011;5863;52.832;4.758;2022-08-02T05:02:56;3.05;;;1.83;;
11614;SDS011;5863;52.832;4.758;2022-08-02T05:05:25;8.25;;;2.15;;
11614;SDS011;5863;52.832;4.758;2022-08-02T05:07:53;4.68;;;2.00;;
11614;SDS011;5863;52.832;4.758;2022-08-02T05:10:20;5.47;;;1.65;;
11614;SDS011;5863;52.832;4.758;2022-08-02T05:12:47;4.85;;;1.77;;
11614;SDS011;5863;52.832;4.758;2022-08-02T05:15:14;5.22;;;1.73;;
11614;SDS011;5863;52.832;4.758;2022-08-02T05:17:42;4.63;;;1.77;;
11614;SDS011;5863;52.832;4.758;2022-08-02T05:20:10;4.45;;;1.60;;
11614;SDS011;5863;52.832;4.758;2022-08-02T05:22:40;3.28;;;1.50;;
11614;SDS011;5863;52.832;4.758;2022-08-02T05:25:07;4.80;;;1.80;;
11614;SDS011;5863;52.832;4.758;2022-08-02T05:27:35;5.40;;;1.75;;
11614;SDS011;5863;52.832;4.758;2022-08-02T05:30:09;1.92;;;1.42;;
11614;SDS011;5863;52.832;4.758;2022-08-02T05:32:43;2.72;;;1.40;;
11614;SDS011;5863;52.832;4.758;2022-08-02T05:35:12;2.95;;;1.80;;
11614;SDS011;5863;52.832;4.758;2022-08-02T05:37:40;4.07;;;1.75;;
11614;SDS011;5863;52.832;4.758;2022-08-02T05:40:07;2.78;;;1.65;;
11614;SDS011;5863;52.832;4.758;2022-08-02T05:42:34;5.25;;;1.80;;
11614;SDS011;5863;52.832;4.758;2022-08-02T05:45:01;5.38;;;1.90;;
11614;SDS011;5863;52.832;4.758;2022-08-02T05:47:28;4.38;;;1.80;;
11614;SDS011;5863;52.832;4.758;2022-08-02T05:49:55;3.15;;;1.63;;
11614;SDS011;5863;52.832;4.758;2022-08-02T05:52:23;3.63;;;1.60;;
11614;SDS011;5863;52.832;4.758;2022-08-02T05:54:56;2.60;;;1.60;;
11614;SDS011;5863;52.832;4.758;2022-08-02T05:57:34;4.38;;;2.03;;
11614;SDS011;5863;52.832;4.758;2022-08-02T06:00:06;3.78;;;1.60;;
11614;SDS011;5863;52.832;4.758;2022-08-02T06:02:38;4.20;;;1.52;;
11614;SDS011;5863;52.832;4.758;2022-08-02T06:05:13;3.92;;;1.40;;
11614;SDS011;5863;52.832;4.758;2022-08-02T06:07:41;3.95;;;1.50;;
11614;SDS011;5863;52.832;4.758;2022-08-02T06:10:12;3.78;;;1.77;;
11614;SDS011;5863;52.832;4.758;2022-08-02T06:12:46;2.65;;;1.45;;
11614;SDS011;5863;52.832;4.758;2022-08-02T06:15:14;4.55;;;1.83;;
11614;SDS011;5863;52.832;4.758;2022-08-02T06:17:42;3.38;;;1.80;;
11614;SDS011;5863;52.832;4.758;2022-08-02T06:20:10;2.88;;;1.77;;
11614;SDS011;5863;52.832;4.758;2022-08-02T06:22:39;8.57;;;1.88;;
11614;SDS011;5863;52.832;4.758;2022-08-02T06:25:07;3.88;;;1.90;;
11614;SDS011;5863;52.832;4.758;2022-08-02T06:27:36;3.17;;;1.60;;
11614;SDS011;5863;52.832;4.758;2022-08-02T06:30:04;4.30;;;1.75;;
11614;SDS011;5863;52.832;4.758;2022-08-02T06:32:32;5.07;;;2.10;;
11614;SDS011;5863;52.832;4.758;2022-08-02T06:34:59;3.15;;;1.80;;
11614;SDS011;5863;52.832;4.758;2022-08-02T06:37:28;3.75;;;1.85;;
11614;SDS011;5863;52.832;4.758;2022-08-02T06:40:02;8.52;;;1.80;;
11614;SDS011;5863;52.832;4.758;2022-08-02T06:42:36;5.30;;;2.20;;
11614;SDS011;5863;52.832;4.758;2022-08-02T06:45:09;8.07;;;2.17;;
11614;SDS011;5863;52.832;4.758;2022-08-02T06:47:36;4.95;;;2.15;;
11614;SDS011;5863;52.832;4.758;2022-08-02T06:50:03;6.15;;;2.30;;
11614;SDS011;5863;52.832;4.758;2022-08-02T06:52:30;7.07;;;2.25;;
11614;SDS011;5863;52.832;4.758;2022-08-02T06:54:58;4.03;;;2.10;;
11614;SDS011;5863;52.832;4.758;2022-08-02T06:57:25;6.40;;;2.65;;
11614;SDS011;5863;52.832;4.758;2022-08-02T06:59:54;5.18;;;2.38;;
11614;SDS011;5863;52.832;4.758;2022-08-02T07:02:23;6.95;;;2.53;;
11614;SDS011;5863;52.832;4.758;2022-08-02T07:04:50;5.00;;;2.50;;
11614;SDS011;5863;52.832;4.758;2022-08-02T07:07:17;5.82;;;3.05;;
11614;SDS011;5863;52.832;4.758;2022-08-02T07:09:43;5.65;;;3.33;;
11614;SDS011;5863;52.832;4.758;2022-08-02T07:12:10;6.03;;;3.38;;
11614;SDS011;5863;52.832;4.758;2022-08-02T07:14:37;8.27;;;4.00;;
11614;SDS011;5863;52.832;4.758;2022-08-02T07:17:05;5.90;;;3.22;;
11614;SDS011;5863;52.832;4.758;2022-08-02T07:19:32;5.93;;;3.45;;
11614;SDS011;5863;52.832;4.758;2022-08-02T07:21:58;6.13;;;3.90;;
11614;SDS011;5863;52.832;4.758;2022-08-02T07:24:25;5.72;;;3.00;;
11614;SDS011;5863;52.832;4.758;2022-08-02T07:26:53;6.00;;;3.35;;
11614;SDS011;5863;52.832;4.758;2022-08-02T07:29:20;5.78;;;3.40;;
11614;SDS011;5863;52.832;4.758;2022-08-02T07:31:46;7.13;;;3.53;;
11614;SDS011;5863;52.832;4.758;2022-08-02T07:34:15;6.70;;;3.53;;
11614;SDS011;5863;52.832;4.758;2022-08-02T07:36:41;6.68;;;3.33;;
11614;SDS011;5863;52.832;4.758;2022-08-02T07:39:08;5.65;;;3.08;;
11614;SDS011;5863;52.832;4.758;2022-08-02T07:41:35;5.85;;;3.42;;
11614;SDS011;5863;52.832;4.758;2022-08-02T07:44:02;5.22;;;3.35;;
11614;SDS011;5863;52.832;4.758;2022-08-02T07:46:29;7.78;;;3.67;;
11614;SDS011;5863;52.832;4.758;2022-08-02T07:48:57;5.38;;;3.33;;
11614;SDS011;5863;52.832;4.758;2022-08-02T07:51:25;6.20;;;3.60;;
11614;SDS011;5863;52.832;4.758;2022-08-02T07:53:52;7.07;;;3.95;;
11614;SDS011;5863;52.832;4.758;2022-08-02T07:56:18;8.32;;;4.10;;
11614;SDS011;5863;52.832;4.758;2022-08-02T07:58:45;6.13;;;4.13;;
11614;SDS011;5863;52.832;4.758;2022-08-02T08:01:12;7.55;;;4.20;;
11614;SDS011;5863;52.832;4.758;2022-08-02T08:03:38;6.60;;;3.90;;
11614;SDS011;5863;52.832;4.758;2022-08-02T08:06:05;7.03;;;3.85;;
11614;SDS011;5863;52.832;4.758;2022-08-02T08:08:34;8.13;;;4.00;;
11614;SDS011;5863;52.832;4.758;2022-08-02T08:11:00;6.18;;;3.95;;
11614;SDS011;5863;52.832;4.758;2022-08-02T08:13:27;5.63;;;3.80;;
11614;SDS011;5863;52.832;4.758;2022-08-02T08:15:54;6.13;;;4.40;;
11614;SDS011;5863;52.832;4.758;2022-08-02T08:18:21;6.07;;;4.05;;
11614;SDS011;5863;52.832;4.758;2022-08-02T08:20:48;8.23;;;4.63;;
11614;SDS011;5863;52.832;4.758;2022-08-02T08:23:15;6.13;;;4.00;;
11614;SDS011;5863;52.832;4.758;2022-08-02T08:25:43;4.75;;;3.95;;
11614;SDS011;5863;52.832;4.758;2022-08-02T08:28:10;6.18;;;4.35;;
11614;SDS011;5863;52.832;4.758;2022-08-02T08:30:38;6.47;;;4.00;;
11614;SDS011;5863;52.832;4.758;2022-08-02T08:33:05;4.70;;;3.92;;
11614;SDS011;5863;52.832;4.758;2022-08-02T08:35:32;5.50;;;4.20;;
11614;SDS011;5863;52.832;4.758;2022-08-02T08:37:59;6.95;;;4.78;;
11614;SDS011;5863;52.832;4.758;2022-08-02T08:40:26;8.63;;;5.82;;
11614;SDS011;5863;52.832;4.758;2022-08-02T08:42:54;12.70;;;6.75;;
11614;SDS011;5863;52.832;4.758;2022-08-02T08:45:21;9.20;;;7.50;;
11614;SDS011;5863;52.832;4.758;2022-08-02T08:47:50;11.25;;;7.97;;
11614;SDS011;5863;52.832;4.758;2022-08-02T08:50:23;11.80;;;9.40;;
11614;SDS011;5863;52.832;4.758;2022-08-02T08:52:52;13.88;;;10.90;;
11614;SDS011;5863;52.832;4.758;2022-08-02T08:55:24;13.70;;;10.18;;
11614;SDS011;5863;52.832;4.758;2022-08-02T08:57:54;14.40;;;10.50;;
11614;SDS011;5863;52.832;4.758;2022-08-02T09:00:24;12.57;;;9.98;;
11614;SDS011;5863;52.832;4.758;2022-08-02T09:02:51;13.30;;;9.52;;
11614;SDS011;5863;52.832;4.758;2022-08-02T09:05:18;11.80;;;9.25;;
11614;SDS011;5863;52.832;4.758;2022-08-02T09:07:46;13.10;;;9.60;;
11614;SDS011;5863;52.832;4.758;2022-08-02T09:10:33;11.85;;;9.13;;
11614;SDS011;5863;52.832;4.758;2022-08-02T09:13:09;12.98;;;8.65;;
11614;SDS011;5863;52.832;4.758;2022-08-02T09:15:39;12.00;;;9.48;;
11614;SDS011;5863;52.832;4.758;2022-08-02T09:18:06;14.38;;;9.35;;
11614;SDS011;5863;52.832;4.758;2022-08-02T09:20:35;11.27;;;8.77;;
11614;SDS011;5863;52.832;4.758;2022-08-02T09:23:17;9.88;;;8.70;;
11614;SDS011;5863;52.832;4.758;2022-08-02T09:25:54;15.30;;;8.93;;
11614;SDS011;5863;52.832;4.758;2022-08-02T09:28:26;13.52;;;10.27;;
11614;SDS011;5863;52.832;4.758;2022-08-02T09:30:57;17.55;;;10.15;;
11614;SDS011;5863;52.832;4.758;2022-08-02T09:33:30;14.10;;;10.95;;
11614;SDS011;5863;52.832;4.758;2022-08-02T09:35:59;13.63;;;12.18;;
11614;SDS011;5863;52.832;4.758;2022-08-02T09:38:28;14.77;;;11.20;;
11614;SDS011;5863;52.832;4.758;2022-08-02T09:40:55;14.88;;;12.25;;
11614;SDS011;5863;52.832;4.758;2022-08-02T09:43:34;15.50;;;13.70;;
11614;SDS011;5863;52.832;4.758;2022-08-02T09:46:09;19.80;;;13.73;;
11614;SDS011;5863;52.832;4.758;2022-08-02T09:48:44;17.17;;;14.10;;
11614;SDS011;5863;52.832;4.758;2022-08-02T09:51:19;19.13;;;14.45;;
11614;SDS011;5863;52.832;4.758;2022-08-02T09:53:50;16.63;;;13.48;;
11614;SDS011;5863;52.832;4.758;2022-08-02T09:56:18;16.23;;;12.48;;
11614;SDS011;5863;52.832;4.758;2022-08-02T09:58:47;17.13;;;14.35;;
11614;SDS011;5863;52.832;4.758;2022-08-02T10:01:16;23.38;;;14.60;;
11614;SDS011;5863;52.832;4.758;2022-08-02T10:03:54;17.52;;;14.02;;
11614;SDS011;5863;52.832;4.758;2022-08-02T10:06:23;17.63;;;11.85;;
11614;SDS011;5863;52.832;4.758;2022-08-02T10:08:50;18.73;;;12.40;;
11614;SDS011;5863;52.832;4.758;2022-08-02T10:11:18;18.60;;;13.35;;
11614;SDS011;5863;52.832;4.758;2022-08-02T10:13:47;20.63;;;14.48;;
11614;SDS011;5863;52.832;4.758;2022-08-02T10:16:15;24.55;;;14.35;;
11614;SDS011;5863;52.832;4.758;2022-08-02T10:18:43;20.08;;;12.90;;
11614;SDS011;5863;52.832;4.758;2022-08-02T10:21:14;22.80;;;13.55;;
11614;SDS011;5863;52.832;4.758;2022-08-02T10:23:44;22.45;;;14.75;;
11614;SDS011;5863;52.832;4.758;2022-08-02T10:26:13;21.80;;;14.25;;
11614;SDS011;5863;52.832;4.758;2022-08-02T10:28:42;20.25;;;13.05;;
11614;SDS011;5863;52.832;4.758;2022-08-02T10:31:13;19.48;;;13.27;;
11614;SDS011;5863;52.832;4.758;2022-08-02T10:33:43;17.98;;;14.50;;
11614;SDS011;5863;52.832;4.758;2022-08-02T10:36:11;20.85;;;15.48;;
11614;SDS011;5863;52.832;4.758;2022-08-02T10:38:39;25.70;;;15.98;;
11614;SDS011;5863;52.832;4.758;2022-08-02T10:41:06;19.70;;;15.45;;
11614;SDS011;5863;52.832;4.758;2022-08-02T10:43:41;19.33;;;14.35;;
11614;SDS011;5863;52.832;4.758;2022-08-02T10:49:08;22.65;;;15.50;;
11614;SDS011;5863;52.832;4.758;2022-08-02T10:51:53;20.77;;;14.40;;
11614;SDS011;5863;52.832;4.758;2022-08-02T10:54:22;19.17;;;12.57;;
11614;SDS011;5863;52.832;4.758;2022-08-02T10:56:50;16.15;;;10.95;;
11614;SDS011;5863;52.832;4.758;2022-08-02T10:59:22;19.73;;;10.32;;
11614;SDS011;5863;52.832;4.758;2022-08-02T11:01:51;20.13;;;12.38;;
11614;SDS011;5863;52.832;4.758;2022-08-02T11:04:25;21.05;;;11.63;;
11614;SDS011;5863;52.832;4.758;2022-08-02T11:07:06;18.25;;;10.90;;
11614;SDS011;5863;52.832;4.758;2022-08-02T11:09:38;13.82;;;9.23;;
11614;SDS011;5863;52.832;4.758;2022-08-02T11:12:06;12.15;;;8.80;;
11614;SDS011;5863;52.832;4.758;2022-08-02T11:14:35;14.70;;;8.90;;
11614;SDS011;5863;52.832;4.758;2022-08-02T11:17:11;11.20;;;7.70;;
11614;SDS011;5863;52.832;4.758;2022-08-02T11:22:43;12.40;;;7.15;;
11614;SDS011;5863;52.832;4.758;2022-08-02T11:25:30;11.13;;;6.53;;
11614;SDS011;5863;52.832;4.758;2022-08-02T11:27:59;14.57;;;8.02;;
11614;SDS011;5863;52.832;4.758;2022-08-02T11:30:33;13.45;;;8.43;;
11614;SDS011;5863;52.832;4.758;2022-08-02T11:33:03;13.43;;;8.65;;
11614;SDS011;5863;52.832;4.758;2022-08-02T11:35:30;11.73;;;8.40;;
11614;SDS011;5863;52.832;4.758;2022-08-02T11:38:07;17.75;;;8.90;;
11614;SDS011;5863;52.832;4.758;2022-08-02T11:40:38;14.82;;;9.80;;
11614;SDS011;5863;52.832;4.758;2022-08-02T11:43:14;16.33;;;9.30;;
11614;SDS011;5863;52.832;4.758;2022-08-02T11:45:45;19.23;;;9.55;;
11614;SDS011;5863;52.832;4.758;2022-08-02T11:48:14;12.80;;;8.32;;
11614;SDS011;5863;52.832;4.758;2022-08-02T11:51:02;10.38;;;7.63;;
11614;SDS011;5863;52.832;4.758;2022-08-02T11:53:33;11.40;;;6.95;;
11614;SDS011;5863;52.832;4.758;2022-08-02T11:56:10;14.85;;;6.93;;
11614;SDS011;5863;52.832;4.758;2022-08-02T11:58:38;17.67;;;7.20;;
11614;SDS011;5863;52.832;4.758;2022-08-02T12:01:05;15.38;;;7.75;;
11614;SDS011;5863;52.832;4.758;2022-08-02T12:03:35;16.00;;;6.93;;
11614;SDS011;5863;52.832;4.758;2022-08-02T12:06:03;10.75;;;6.03;;
11614;SDS011;5863;52.832;4.758;2022-08-02T12:08:30;12.75;;;5.30;;
11614;SDS011;5863;52.832;4.758;2022-08-02T12:10:59;9.65;;;5.07;;
11614;SDS011;5863;52.832;4.758;2022-08-02T12:13:27;12.95;;;4.80;;
11614;SDS011;5863;52.832;4.758;2022-08-02T12:16:08;8.48;;;5.00;;
11614;SDS011;5863;52.832;4.758;2022-08-02T12:18:51;8.80;;;4.75;;
11614;SDS011;5863;52.832;4.758;2022-08-02T12:21:35;10.20;;;4.78;;
11614;SDS011;5863;52.832;4.758;2022-08-02T12:24:02;9.63;;;4.20;;
11614;SDS011;5863;52.832;4.758;2022-08-02T12:26:29;7.80;;;3.78;;
11614;SDS011;5863;52.832;4.758;2022-08-02T12:28:56;11.18;;;4.00;;
11614;SDS011;5863;52.832;4.758;2022-08-02T12:31:37;7.13;;;3.33;;
11614;SDS011;5863;52.832;4.758;2022-08-02T12:34:11;6.53;;;3.00;;
11614;SDS011;5863;52.832;4.758;2022-08-02T12:36:41;10.15;;;3.85;;
11614;SDS011;5863;52.832;4.758;2022-08-02T12:39:10;11.43;;;4.03;;
11614;SDS011;5863;52.832;4.758;2022-08-02T12:41:38;8.73;;;3.67;;
11614;SDS011;5863;52.832;4.758;2022-08-02T12:44:13;10.60;;;3.47;;
11614;SDS011;5863;52.832;4.758;2022-08-02T12:46:40;5.28;;;3.38;;
11614;SDS011;5863;52.832;4.758;2022-08-02T12:49:14;7.15;;;3.40;;
11614;SDS011;5863;52.832;4.758;2022-08-02T12:51:41;9.52;;;3.83;;
11614;SDS011;5863;52.832;4.758;2022-08-02T12:54:12;13.85;;;4.65;;
11614;SDS011;5863;52.832;4.758;2022-08-02T12:56:43;9.77;;;3.88;;
11614;SDS011;5863;52.832;4.758;2022-08-02T12:59:10;11.77;;;4.22;;
11614;SDS011;5863;52.832;4.758;2022-08-02T13:01:37;10.10;;;4.40;;
11614;SDS011;5863;52.832;4.758;2022-08-02T13:04:05;7.82;;;3.72;;
11614;SDS011;5863;52.832;4.758;2022-08-02T13:06:34;8.68;;;4.50;;
11614;SDS011;5863;52.832;4.758;2022-08-02T13:09:01;10.73;;;4.18;;
11614;SDS011;5863;52.832;4.758;2022-08-02T13:11:36;9.40;;;4.22;;
11614;SDS011;5863;52.832;4.758;2022-08-02T13:14:02;12.48;;;4.30;;
11614;SDS011;5863;52.832;4.758;2022-08-02T13:16:29;11.27;;;4.65;;
11614;SDS011;5863;52.832;4.758;2022-08-02T13:18:57;5.63;;;3.67;;
11614;SDS011;5863;52.832;4.758;2022-08-02T13:21:24;9.68;;;4.45;;
11614;SDS011;5863;52.832;4.758;2022-08-02T13:23:52;8.73;;;4.07;;
11614;SDS011;5863;52.832;4.758;2022-08-02T13:26:19;10.52;;;4.28;;
11614;SDS011;5863;52.832;4.758;2022-08-02T13:28:46;7.85;;;3.80;;
11614;SDS011;5863;52.832;4.758;2022-08-02T13:31:12;8.43;;;3.80;;
11614;SDS011;5863;52.832;4.758;2022-08-02T13:33:39;8.52;;;3.90;;
11614;SDS011;5863;52.832;4.758;2022-08-02T13:36:06;8.77;;;3.72;;
11614;SDS011;5863;52.832;4.758;2022-08-02T13:38:33;10.07;;;3.38;;
11614;SDS011;5863;52.832;4.758;2022-08-02T13:41:01;11.23;;;3.50;;
11614;SDS011;5863;52.832;4.758;2022-08-02T13:43:33;7.32;;;3.15;;
11614;SDS011;5863;52.832;4.758;2022-08-02T13:46:00;10.15;;;3.53;;
11614;SDS011;5863;52.832;4.758;2022-08-02T13:48:27;9.68;;;3.38;;
11614;SDS011;5863;52.832;4.758;2022-08-02T13:50:53;10.32;;;3.45;;
11614;SDS011;5863;52.832;4.758;2022-08-02T13:53:20;11.20;;;3.38;;
11614;SDS011;5863;52.832;4.758;2022-08-02T13:55:47;12.07;;;3.45;;
11614;SDS011;5863;52.832;4.758;2022-08-02T13:58:17;8.88;;;3.03;;
11614;SDS011;5863;52.832;4.758;2022-08-02T14:00:44;7.15;;;3.08;;
11614;SDS011;5863;52.832;4.758;2022-08-02T14:03:10;8.48;;;3.33;;
11614;SDS011;5863;52.832;4.758;2022-08-02T14:05:38;7.90;;;3.03;;
11614;SDS011;5863;52.832;4.758;2022-08-02T14:08:06;6.63;;;2.65;;
11614;SDS011;5863;52.832;4.758;2022-08-02T14:10:33;6.90;;;2.78;;
11614;SDS011;5863;52.832;4.758;2022-08-02T14:13:00;10.98;;;3.00;;
11614;SDS011;5863;52.832;4.758;2022-08-02T14:15:28;6.45;;;2.90;;
11614;SDS011;5863;52.832;4.758;2022-08-02T14:17:55;11.35;;;2.78;;
11614;SDS011;5863;52.832;4.758;2022-08-02T14:20:22;6.03;;;2.20;;
11614;SDS011;5863;52.832;4.758;2022-08-02T14:22:48;7.38;;;2.70;;
11614;SDS011;5863;52.832;4.758;2022-08-02T14:25:15;4.25;;;2.00;;
11614;SDS011;5863;52.832;4.758;2022-08-02T14:27:42;7.78;;;2.60;;
11614;SDS011;5863;52.832;4.758;2022-08-02T14:30:09;7.30;;;2.38;;
11614;SDS011;5863;52.832;4.758;2022-08-02T14:32:37;7.97;;;2.10;;
11614;SDS011;5863;52.832;4.758;2022-08-02T14:35:04;8.68;;;2.58;;
11614;SDS011;5863;52.832;4.758;2022-08-02T14:37:31;5.95;;;2.20;;
11614;SDS011;5863;52.832;4.758;2022-08-02T14:39:58;9.90;;;2.35;;
11614;SDS011;5863;52.832;4.758;2022-08-02T14:42:25;13.48;;;2.60;;
11614;SDS011;5863;52.832;4.758;2022-08-02T14:44:51;8.25;;;2.78;;
11614;SDS011;5863;52.832;4.758;2022-08-02T14:47:18;9.63;;;2.30;;
11614;SDS011;5863;52.832;4.758;2022-08-02T14:49:46;8.70;;;2.35;;
11614;SDS011;5863;52.832;4.758;2022-08-02T14:52:13;5.82;;;2.22;;
11614;SDS011;5863;52.832;4.758;2022-08-02T14:54:39;8.00;;;2.88;;
11614;SDS011;5863;52.832;4.758;2022-08-02T14:57:07;11.98;;;2.78;;
11614;SDS011;5863;52.832;4.758;2022-08-02T14:59:34;12.80;;;4.03;;
11614;SDS011;5863;52.832;4.758;2022-08-02T15:02:01;6.93;;;2.70;;
11614;SDS011;5863;52.832;4.758;2022-08-02T15:04:28;11.15;;;3.67;;
11614;SDS011;5863;52.832;4.758;2022-08-02T15:06:59;7.60;;;2.72;;
11614;SDS011;5863;52.832;4.758;2022-08-02T15:09:26;6.85;;;2.72;;
11614;SDS011;5863;52.832;4.758;2022-08-02T15:11:53;11.52;;;2.85;;
11614;SDS011;5863;52.832;4.758;2022-08-02T15:14:19;5.00;;;2.50;;
11614;SDS011;5863;52.832;4.758;2022-08-02T15:16:47;6.53;;;2.22;;